Time;durP1;ratioP1;P1;durP2;ratioP2;P2;SDS_P1;SDS_P2;PMS_P1;PMS_P2;Temp;Humidity;BMP_temperature;BMP_pressure;BME280_temperature;BME280_humidity;BME280_pressure;Samples;Min_cycle;Max_cycle;Signal;HPM_P1;HPM_P2
2022/06/02 00:01:19;;;;;;;4.07;1.00;;;13.50;89.00;;;;;;6226690;23;20020;-90
2022/06/02 00:04:38;;;;;;;1.92;1.25;;;13.40;87.90;;;;;;6246638;23;20034;-90
2022/06/02 00:07:45;;;;;;;3.33;1.35;;;13.40;90.00;;;;;;6205326;23;20092;-91
2022/06/02 00:10:53;;;;;;;1.30;1.00;;;13.30;89.40;;;;;;6246177;23;20024;-90
2022/06/02 00:13:49;;;;;;;3.58;1.00;;;13.30;89.90;;;;;;6228045;23;20031;-89
2022/06/02 00:17:03;;;;;;;1.67;1.13;;;13.20;90.30;;;;;;6246872;23;20020;-89
2022/06/02 00:20:08;;;;;;;2.20;1.17;;;13.10;90.20;;;;;;6249255;23;20028;-91
2022/06/02 00:23:14;;;;;;;1.45;1.25;;;13.10;90.30;;;;;;6249076;23;20024;-89
2022/06/02 00:26:23;;;;;;;3.40;1.13;;;13.00;91.00;;;;;;6246208;23;20148;-89
2022/06/02 00:29:18;;;;;;;3.30;1.00;;;13.00;91.30;;;;;;6247714;23;20028;-89
2022/06/02 00:32:25;;;;;;;2.63;1.27;;;13.00;90.10;;;;;;6246676;23;20036;-89
2022/06/02 00:35:24;;;;;;;6.05;1.30;;;13.00;91.50;;;;;;6249519;23;20052;-89
2022/06/02 00:38:23;;;;;;;3.90;1.40;;;13.00;91.00;;;;;;6227791;23;20020;-91
2022/06/02 00:41:41;;;;;;;3.15;1.25;;;12.90;91.30;;;;;;6248054;23;20130;-91
2022/06/02 00:44:54;;;;;;;4.63;1.20;;;12.80;91.80;;;;;;6228537;23;20406;-88
2022/06/02 00:48:08;;;;;;;3.75;1.05;;;12.80;92.40;;;;;;6249306;23;20315;-88
2022/06/02 00:51:10;;;;;;;3.72;1.33;;;12.80;91.40;;;;;;6247489;23;20583;-91
2022/06/02 00:57:30;;;;;;;2.53;1.25;;;12.80;91.70;;;;;;6248307;23;20028;-89
2022/06/02 01:00:40;;;;;;;1.33;1.08;;;12.70;93.10;;;;;;6230539;23;20742;-89
2022/06/02 01:03:43;;;;;;;2.08;1.27;;;12.70;92.90;;;;;;6248231;23;20020;-88
2022/06/02 01:06:33;;;;;;;3.47;1.20;;;12.70;93.10;;;;;;6230534;23;20055;-89
2022/06/02 01:09:58;;;;;;;3.95;1.38;;;12.70;93.50;;;;;;6252102;23;20740;-90
2022/06/02 01:12:52;;;;;;;5.32;1.60;;;12.70;93.40;;;;;;6251850;23;20078;-90
2022/06/02 01:16:04;;;;;;;1.65;1.10;;;12.70;93.80;;;;;;6251200;23;20024;-92
2022/06/02 01:19:03;;;;;;;2.50;1.17;;;12.70;93.10;;;;;;6232317;23;20024;-88
2022/06/02 01:22:07;;;;;;;3.42;1.23;;;12.70;93.40;;;;;;6230619;23;20723;-89
2022/06/02 01:25:36;;;;;;;4.40;1.20;;;12.60;93.70;;;;;;6251304;23;20101;-90
2022/06/02 01:28:41;;;;;;;3.25;1.25;;;12.60;93.70;;;;;;6260385;23;20024;-89
2022/06/02 01:31:49;;;;;;;1.30;1.20;;;12.60;95.00;;;;;;6261935;23;20082;-86
2022/06/02 01:34:44;;;;;;;4.10;1.17;;;12.60;94.30;;;;;;6262150;23;20103;-88
2022/06/02 01:37:39;;;;;;;2.03;1.27;;;12.60;95.60;;;;;;6267725;22;20039;-88
2022/06/02 01:40:44;;;;;;;2.72;1.15;;;12.60;95.90;;;;;;6242759;23;20024;-89
2022/06/02 01:43:54;;;;;;;3.63;2.20;;;12.70;95.30;;;;;;6257608;23;20027;-90
2022/06/02 01:47:01;;;;;;;2.90;1.20;;;12.80;95.30;;;;;;6261820;23;20082;-89
2022/06/02 01:50:08;;;;;;;2.47;1.10;;;12.70;95.30;;;;;;6255343;23;20024;-91
2022/06/02 01:53:33;;;;;;;1.80;1.20;;;12.70;95.80;;;;;;6231307;22;20050;-88
2022/06/02 01:56:38;;;;;;;3.40;1.30;;;12.70;95.90;;;;;;6255947;23;20024;-89
2022/06/02 01:59:28;;;;;;;3.90;1.23;;;12.60;95.80;;;;;;6253480;23;20020;-87
2022/06/02 02:02:37;;;;;;;2.70;1.30;;;12.50;96.70;;;;;;6248097;23;20399;-88
2022/06/02 02:06:13;;;;;;;3.22;1.20;;;12.50;96.80;;;;;;6226684;23;20082;-90
2022/06/02 02:09:36;;;;;;;3.42;1.60;;;12.40;97.30;;;;;;6247947;23;20097;-88
2022/06/02 02:12:52;;;;;;;3.75;1.40;;;12.40;98.10;;;;;;6224244;23;20024;-89
2022/06/02 02:15:39;;;;;;;3.92;1.33;;;12.30;97.80;;;;;;6194518;23;20304;-88
2022/06/02 02:18:41;;;;;;;7.43;1.40;;;12.30;98.60;;;;;;6226561;23;20027;-91
2022/06/02 02:21:48;;;;;;;6.05;1.13;;;12.20;98.70;;;;;;6246539;23;20411;-88
2022/06/02 02:25:01;;;;;;;3.05;1.50;;;12.20;99.40;;;;;;6247600;23;20020;-89
2022/06/02 02:28:04;;;;;;;3.67;1.30;;;12.10;99.90;;;;;;6246919;23;20038;-91
2022/06/02 02:31:10;;;;;;;3.42;1.30;;;12.00;99.80;;;;;;6248493;23;20103;-88
2022/06/02 02:34:15;;;;;;;2.90;1.35;;;12.00;99.90;;;;;;6226914;23;20028;-90
2022/06/02 02:37:22;;;;;;;3.42;1.33;;;11.80;99.90;;;;;;6248462;23;20024;-92
2022/06/02 02:40:25;;;;;;;3.55;1.60;;;11.80;99.90;;;;;;6205043;23;20138;-90
2022/06/02 02:43:28;;;;;;;1.73;1.55;;;11.70;99.90;;;;;;6250684;22;20020;-91
2022/06/02 02:46:53;;;;;;;3.85;1.77;;;11.70;99.90;;;;;;6229601;23;20030;-90
2022/06/02 02:50:09;;;;;;;3.15;1.20;;;11.70;99.90;;;;;;6249318;23;20028;-91
2022/06/02 02:53:06;;;;;;;2.92;1.52;;;11.60;99.90;;;;;;6248489;23;20028;-91
2022/06/02 02:56:22;;;;;;;3.22;1.65;;;11.60;99.90;;;;;;6245941;23;20028;-87
2022/06/02 02:59:32;;;;;;;2.45;1.48;;;11.50;99.90;;;;;;6251319;23;20089;-89
2022/06/02 03:02:30;;;;;;;2.88;1.30;;;11.50;99.90;;;;;;6249259;23;20088;-88
2022/06/02 03:05:31;;;;;;;3.42;1.60;;;11.40;99.90;;;;;;6249342;23;20039;-87
2022/06/02 03:08:41;;;;;;;1.90;1.48;;;11.30;99.90;;;;;;6249704;22;20024;-89
2022/06/02 03:11:48;;;;;;;3.47;1.50;;;11.20;99.90;;;;;;6248998;23;20028;-90
2022/06/02 03:14:44;;;;;;;3.10;1.67;;;11.20;99.90;;;;;;6228764;23;20039;-89
2022/06/02 03:18:03;;;;;;;3.30;1.67;;;11.10;99.90;;;;;;6228303;23;20117;-90
2022/06/02 03:21:05;;;;;;;5.35;1.75;;;11.00;99.90;;;;;;6248769;23;20431;-91
2022/06/02 03:24:39;;;;;;;6.10;1.80;;;10.90;99.90;;;;;;6246357;23;20079;-88
2022/06/02 03:27:47;;;;;;;1.40;1.30;;;10.90;99.90;;;;;;6248234;23;20050;-88
2022/06/02 03:31:15;;;;;;;2.65;1.60;;;11.00;99.90;;;;;;6186056;23;20031;-89
2022/06/02 03:34:31;;;;;;;2.25;1.27;;;11.10;99.90;;;;;;6229284;23;20046;-90
2022/06/02 03:37:36;;;;;;;1.88;1.38;;;11.10;99.90;;;;;;6248258;23;20035;-89
2022/06/02 03:40:49;;;;;;;3.22;1.40;;;11.00;99.90;;;;;;6248250;23;20072;-87
2022/06/02 03:44:16;;;;;;;2.83;1.30;;;11.00;99.90;;;;;;6245960;23;20039;-87
2022/06/02 03:47:23;;;;;;;3.10;1.45;;;11.00;99.90;;;;;;6184977;23;20027;-89
2022/06/02 03:51:05;;;;;;;1.45;1.30;;;11.00;99.90;;;;;;6246482;23;20035;-86
2022/06/02 03:54:16;;;;;;;9.95;1.80;;;11.10;99.90;;;;;;6127658;23;20030;-90
2022/06/02 03:57:41;;;;;;;3.97;1.60;;;11.20;99.90;;;;;;6249406;23;20040;-89
2022/06/02 04:00:51;;;;;;;8.55;1.77;;;11.20;99.90;;;;;;6229950;23;20117;-90
2022/06/02 04:04:17;;;;;;;4.25;1.95;;;11.30;99.90;;;;;;6250933;23;20434;-88
2022/06/02 04:07:29;;;;;;;2.13;1.35;;;11.40;99.90;;;;;;6208526;23;20055;-89
2022/06/02 04:10:20;;;;;;;5.40;1.77;;;11.40;99.90;;;;;;6253447;23;20419;-90
2022/06/02 04:13:39;;;;;;;2.17;1.33;;;11.50;99.90;;;;;;6232370;23;20391;-90
2022/06/02 04:20:35;;;;;;;7.13;1.70;;;11.50;99.90;;;;;;6251344;23;20009;-88
2022/06/02 04:31:04;;;;;;;4.97;1.63;;;11.60;99.90;;;;;;6223416;22;20036;-85
2022/06/02 04:33:56;;;;;;;3.45;1.63;;;11.60;99.90;;;;;;6196124;23;20035;-89
2022/06/02 04:53:49;;;;;;;2.72;1.65;;;12.40;99.90;;;;;;6215943;23;20079;-89
2022/06/02 04:57:21;;;;;;;4.15;1.70;;;12.50;99.90;;;;;;6197245;23;20024;-89
2022/06/02 05:00:30;;;;;;;5.07;1.50;;;12.60;99.90;;;;;;6213673;23;20028;-87
2022/06/02 05:03:39;;;;;;;4.18;1.40;;;12.70;99.90;;;;;;6219476;23;20088;-85
2022/06/02 05:06:34;;;;;;;3.03;1.92;;;12.80;99.90;;;;;;6219162;23;20056;-85
2022/06/02 05:09:52;;;;;;;3.40;1.73;;;12.80;99.90;;;;;;6219848;23;20028;-87
2022/06/02 05:12:49;;;;;;;3.72;1.30;;;12.80;99.90;;;;;;6221463;23;20392;-86
2022/06/02 05:15:55;;;;;;;3.67;1.75;;;12.90;99.90;;;;;;6218383;23;20032;-85
2022/06/02 05:19:06;;;;;;;1.88;1.33;;;12.90;99.90;;;;;;6229716;23;20036;-88
2022/06/02 05:22:05;;;;;;;6.28;1.83;;;12.80;99.90;;;;;;6229628;23;20091;-87
2022/06/02 05:24:58;;;;;;;6.90;1.90;;;12.80;99.90;;;;;;6208005;23;20044;-88
2022/06/02 05:27:52;;;;;;;3.60;1.70;;;12.80;99.90;;;;;;6233171;22;20123;-86
2022/06/02 05:30:51;;;;;;;4.40;1.70;;;12.80;99.90;;;;;;6235809;22;20079;-81
2022/06/02 05:34:02;;;;;;;8.35;1.92;;;12.90;99.90;;;;;;6237117;22;20088;-89
2022/06/02 05:37:08;;;;;;;3.67;1.73;;;13.10;99.90;;;;;;6214543;22;20035;-86
2022/06/02 05:43:25;;;;;;;;;;;;;;;;;;;;;
2022/06/02 05:47:09;;;;;;;3.17;1.40;;;13.70;99.90;;;;;;6234992;22;20075;-86
2022/06/02 05:54:13;;;;;;;4.50;1.80;;;14.30;99.90;;;;;;6103926;23;20018;-89
2022/06/02 05:58:22;;;;;;;3.00;1.40;;;14.50;99.90;;;;;;6018280;23;20127;-92
2022/06/02 06:01:24;;;;;;;5.63;1.73;;;14.70;99.90;;;;;;6106272;23;20030;-88
2022/06/02 06:04:52;;;;;;;6.15;1.73;;;14.90;99.90;;;;;;6078625;23;20041;-88
2022/06/02 06:08:05;;;;;;;3.15;1.65;;;14.90;99.90;;;;;;6095301;23;20030;-90
2022/06/02 06:11:21;;;;;;;5.47;2.13;;;14.80;99.90;;;;;;6077465;23;20026;-88
2022/06/02 06:14:19;;;;;;;5.30;1.75;;;14.50;99.50;;;;;;6121959;23;20032;-87
2022/06/02 06:17:48;;;;;;;2.85;1.38;;;14.50;99.40;;;;;;6215359;23;20028;-87
2022/06/02 06:20:53;;;;;;;5.18;1.55;;;14.40;99.10;;;;;;6196686;23;20031;-87
2022/06/02 06:24:08;;;;;;;2.25;1.60;;;14.40;99.50;;;;;;6215496;23;20032;-83
2022/06/02 06:27:23;;;;;;;2.75;1.55;;;14.40;99.20;;;;;;6206626;23;20063;-87
2022/06/02 06:30:26;;;;;;;3.88;1.70;;;14.50;99.10;;;;;;6230187;23;20048;-87
2022/06/02 06:34:07;;;;;;;8.35;1.60;;;14.80;99.50;;;;;;6209353;23;20024;-87
2022/06/02 06:37:28;;;;;;;5.65;1.50;;;15.20;98.30;;;;;;6111031;23;20094;-85
2022/06/02 06:40:51;;;;;;;3.45;1.45;;;15.60;97.30;;;;;;6124239;23;20021;-89
2022/06/02 06:44:16;;;;;;;3.25;1.52;;;16.10;96.00;;;;;;6227844;23;20032;-88
2022/06/02 06:48:14;;;;;;;;;;;;;;;;;;;;;
2022/06/02 06:51:31;;;;;;;1.20;1.10;;;16.30;94.30;;;;;;6153841;23;20024;-90
2022/06/02 06:54:52;;;;;;;3.67;1.70;;;16.40;93.80;;;;;;6216353;23;20031;-88
2022/06/02 06:58:23;;;;;;;3.17;1.60;;;16.30;92.70;;;;;;6221709;23;20025;-92
2022/06/02 07:10:41;;;;;;;;;;;;;;;;;;;;;
2022/06/02 07:14:15;;;;;;;2.80;1.35;;;18.00;86.50;;;;;;6048670;23;20027;-90
2022/06/02 07:17:24;;;;;;;2.17;1.35;;;18.40;83.90;;;;;;6044003;23;20023;-90
2022/06/02 07:21:13;;;;;;;5.47;1.23;;;18.80;79.60;;;;;;6113687;23;20096;-88
2022/06/02 07:24:30;;;;;;;2.45;1.45;;;19.30;78.80;;;;;;6220390;23;20024;-87
2022/06/02 07:27:52;;;;;;;3.65;1.45;;;19.40;75.50;;;;;;6214949;23;20024;-91
2022/06/02 07:31:20;;;;;;;1.80;1.10;;;19.70;76.30;;;;;;6196056;23;20030;-91
2022/06/02 07:34:38;;;;;;;1.75;1.00;;;20.10;73.90;;;;;;6215514;23;20327;-89
2022/06/02 07:41:39;;;;;;;2.85;1.45;;;20.30;69.40;;;;;;6217862;23;20023;-90
2022/06/02 07:45:03;;;;;;;4.72;1.17;;;20.60;68.70;;;;;;6194576;23;20025;-91
2022/06/02 07:48:33;;;;;;;5.15;1.02;;;20.90;67.50;;;;;;6220863;23;20289;-90
2022/06/02 07:52:19;;;;;;;3.53;1.33;;;21.30;64.80;;;;;;6212821;23;20059;-91
2022/06/02 08:00:02;;;;;;;2.63;0.85;;;21.70;63.70;;;;;;6212148;23;20051;-85
2022/06/02 08:03:48;;;;;;;;;;;;;;;;;;;;;
2022/06/02 08:07:17;;;;;;;2.58;1.45;;;22.20;59.30;;;;;;6120472;23;20419;-88
2022/06/02 08:11:14;;;;;;;4.38;1.17;;;22.30;56.60;;;;;;6066484;23;20099;-87
2022/06/02 08:14:35;;;;;;;2.40;0.90;;;21.90;57.60;;;;;;6117286;23;20105;-91
2022/06/02 08:17:42;;;;;;;4.63;1.20;;;22.10;57.10;;;;;;6102835;23;20058;-88
2022/06/02 08:21:15;;;;;;;7.03;1.40;;;22.20;58.90;;;;;;6082817;23;20022;-86
2022/06/02 08:25:22;;;;;;;5.45;1.35;;;22.10;58.70;;;;;;6217136;23;20052;-88
2022/06/02 08:28:16;;;;;;;2.63;0.75;;;21.90;54.90;;;;;;6215516;23;20020;-87
2022/06/02 08:35:09;;;;;;;3.72;0.80;;;22.50;58.50;;;;;;6179272;23;20025;-89
2022/06/02 08:38:15;;;;;;;2.35;0.95;;;23.40;56.40;;;;;;6217736;23;20025;-88
2022/06/02 08:41:31;;;;;;;2.53;1.50;;;23.20;55.60;;;;;;6217065;23;20135;-92
2022/06/02 08:45:13;;;;;;;1.45;0.88;;;23.80;54.10;;;;;;6197387;23;20326;-89
2022/06/02 08:48:26;;;;;;;2.05;0.90;;;24.20;52.80;;;;;;6164287;23;20025;-90
2022/06/02 08:52:11;;;;;;;1.98;1.00;;;23.80;52.80;;;;;;6169089;23;20324;-92
2022/06/02 08:55:42;;;;;;;;;;;;;;;;;;;;;
2022/06/02 08:59:27;;;;;;;4.88;1.15;;;24.40;54.30;;;;;;6101342;23;20026;-89
2022/06/02 09:02:51;;;;;;;;;;;;;;;;;;;;;
2022/06/02 09:14:40;;;;;;;5.32;1.10;;;25.20;48.70;;;;;;6042193;23;20015;-89
2022/06/02 09:18:25;;;;;;;4.10;1.20;;;25.00;49.50;;;;;;6019124;23;20031;-90
2022/06/02 09:21:35;;;;;;;5.18;1.00;;;25.80;51.50;;;;;;6022220;23;20031;-82
2022/06/02 09:24:33;;;;;;;2.92;0.90;;;25.50;47.90;;;;;;6040425;23;20055;-88
2022/06/02 09:27:49;;;;;;;3.40;0.80;;;25.70;45.90;;;;;;6069892;23;20058;-89
2022/06/02 09:30:57;;;;;;;2.78;0.60;;;26.60;48.30;;;;;;6171129;23;20412;-92
2022/06/02 09:38:01;;;;;;;4.18;0.95;;;27.00;40.70;;;;;;6135911;23;19968;-88
2022/06/02 09:41:17;;;;;;;2.00;1.02;;;26.90;44.40;;;;;;6170262;23;20120;-86
2022/06/02 09:53:34;;;;;;;;;;;;;;;;;;;;;
2022/06/02 10:01:28;;;;;;;4.22;0.95;;;28.40;43.90;;;;;;6131589;23;20025;-91
2022/06/02 10:09:06;;;;;;;2.55;0.85;;;29.10;42.40;;;;;;6017082;23;20019;-90
2022/06/02 10:13:10;;;;;;;;;;;;;;;;;;;;;
2022/06/02 10:16:47;;;;;;;2.92;0.95;;;29.30;42.30;;;;;;6080714;23;20041;-91
2022/06/02 10:20:59;;;;;;;;;;;;;;;;;;;;;
2022/06/02 10:28:02;;;;;;;1.48;0.80;;;28.20;41.10;;;;;;6036531;23;20027;-88
2022/06/02 10:31:31;;;;;;;1.17;0.70;;;28.50;36.50;;;;;;6047176;23;20026;-88
2022/06/02 10:35:00;;;;;;;2.78;0.98;;;27.90;40.50;;;;;;6124044;23;20093;-86
2022/06/02 10:37:57;;;;;;;1.38;0.70;;;27.90;41.50;;;;;;6159012;23;20016;-82
2022/06/02 10:41:03;;;;;;;1.13;0.75;;;27.50;40.40;;;;;;6215650;23;20035;-84
2022/06/02 10:44:11;;;;;;;1.98;0.80;;;28.00;41.80;;;;;;6193628;23;20028;-84
2022/06/02 10:47:16;;;;;;;3.20;0.90;;;28.90;37.50;;;;;;6215574;23;20068;-82
2022/06/02 10:50:36;;;;;;;1.70;0.77;;;29.50;41.20;;;;;;6215666;23;20079;-83
2022/06/02 10:54:16;;;;;;;2.55;0.85;;;29.10;38.20;;;;;;6158465;23;20034;-83
2022/06/02 10:57:39;;;;;;;;;;;29.10;41.00;;;;;;6217229;23;20024;-85
2022/06/02 11:00:49;;;;;;;6.15;1.30;;;29.20;39.90;;;;;;6199445;23;19916;-89
2022/06/02 11:04:14;;;;;;;3.55;0.90;;;29.60;39.70;;;;;;6205111;23;20048;-85
2022/06/02 11:08:06;;;;;;;1.40;1.00;;;29.60;38.70;;;;;;6126246;23;20101;-87
2022/06/02 11:16:09;;;;;;;4.72;0.95;;;29.90;38.80;;;;;;6126436;23;20049;-92
2022/06/02 11:27:20;;;;;;;0.98;0.80;;;30.50;38.50;;;;;;6193278;23;20040;-86
2022/06/02 11:30:33;;;;;;;1.63;0.90;;;31.30;38.00;;;;;;6216833;23;20039;-88
2022/06/02 11:34:02;;;;;;;2.85;0.90;;;31.30;33.70;;;;;;6194803;23;20035;-86
2022/06/02 11:37:12;;;;;;;;;;;;;;;;;;;;;
2022/06/02 11:40:21;;;;;;;4.55;0.82;;;30.90;34.80;;;;;;6214387;23;20064;-89
2022/06/02 11:47:42;;;;;;;2.08;0.98;;;30.20;36.70;;;;;;6165609;23;20024;-87
2022/06/02 11:55:49;;;;;;;1.63;0.85;;;28.40;40.20;;;;;;6049401;23;20076;-87
2022/06/02 11:59:27;;;;;;;4.03;0.80;;;28.70;39.30;;;;;;6120203;23;20081;-91
2022/06/02 12:03:18;;;;;;;;;;;;;;;;;;;;;
2022/06/02 12:07:01;;;;;;;4.10;0.75;;;28.10;41.00;;;;;;6132033;23;20026;-90
2022/06/02 12:10:19;;;;;;;4.25;1.20;;;28.60;42.90;;;;;;6194692;23;20103;-92
2022/06/02 12:13:55;;;;;;;2.80;0.88;;;28.70;43.80;;;;;;6224452;23;20028;-91
2022/06/02 12:17:41;;;;;;;2.72;0.93;;;29.20;40.60;;;;;;6213152;23;20370;-87
2022/06/02 12:21:09;;;;;;;2.08;0.68;;;28.20;43.00;;;;;;6196889;23;20040;-90
2022/06/02 12:24:20;;;;;;;3.53;1.15;;;27.70;42.20;;;;;;6094746;23;20041;-89
2022/06/02 12:27:54;;;;;;;4.25;0.90;;;27.10;41.00;;;;;;6107381;23;20047;-89
2022/06/02 12:31:24;;;;;;;2.28;1.05;;;26.80;43.50;;;;;;6184235;23;20119;-90
2022/06/02 12:34:57;;;;;;;;;;;;;;;;;;;;;
2022/06/02 12:38:43;;;;;;;3.78;1.10;;;26.80;45.10;;;;;;6185096;23;20424;-89
2022/06/02 12:41:56;;;;;;;3.30;1.02;;;26.70;43.80;;;;;;6170503;23;20028;-85
2022/06/02 12:45:05;;;;;;;3.70;0.93;;;27.60;45.80;;;;;;6185151;23;20029;-90
2022/06/02 12:48:20;;;;;;;1.77;0.95;;;28.30;42.20;;;;;;6185696;23;20037;-90
2022/06/02 12:51:48;;;;;;;1.70;0.93;;;28.50;42.80;;;;;;6185611;23;20104;-92
2022/06/02 12:54:48;;;;;;;1.98;0.90;;;29.00;40.00;;;;;;6186370;23;20400;-88
2022/06/02 12:57:39;;;;;;;3.50;1.20;;;28.40;41.90;;;;;;6163440;23;20107;-89
2022/06/02 13:00:50;;;;;;;2.22;1.05;;;27.90;41.40;;;;;;6192516;23;20337;-90
2022/06/02 13:04:10;;;;;;;2.40;0.93;;;28.30;44.60;;;;;;6169779;23;20096;-86
2022/06/02 13:07:24;;;;;;;3.83;1.02;;;28.60;41.50;;;;;;6197620;22;20158;-89
2022/06/02 13:10:38;;;;;;;;;;;;;;;;;;;;;
2022/06/02 13:13:58;;;;;;;2.35;0.82;;;27.20;42.30;;;;;;6188956;23;20025;-89
2022/06/02 13:20:32;;;;;;;4.20;0.80;;;26.90;43.30;;;;;;6182587;23;20076;-88
2022/06/02 13:23:44;;;;;;;1.70;1.08;;;26.20;43.80;;;;;;6190831;23;20080;-87
2022/06/02 13:27:00;;;;;;;4.60;1.10;;;25.70;46.40;;;;;;6167913;23;20035;-88
2022/06/02 13:30:10;;;;;;;1.83;1.00;;;25.20;45.60;;;;;;6146125;23;20032;-89
2022/06/02 13:33:32;;;;;;;2.97;1.40;;;25.40;47.60;;;;;;6189105;23;20108;-92
2022/06/02 13:36:58;;;;;;;1.63;0.80;;;25.40;48.00;;;;;;6186556;23;20080;-89
2022/06/02 13:40:09;;;;;;;2.53;1.20;;;25.00;47.50;;;;;;6185440;23;20052;-91
2022/06/02 13:43:16;;;;;;;4.82;1.10;;;25.00;47.50;;;;;;6164810;23;20025;-87
2022/06/02 13:46:38;;;;;;;2.20;1.05;;;24.80;49.80;;;;;;6166106;23;20079;-90
2022/06/02 13:49:41;;;;;;;5.40;1.20;;;24.30;48.50;;;;;;6166497;23;20029;-89
2022/06/02 13:52:40;;;;;;;;;;;24.00;51.20;;;;;;6166057;23;20037;-87
2022/06/02 13:59:27;;;;;;;2.25;1.20;;;23.90;52.60;;;;;;6185675;23;20089;-89
2022/06/02 14:02:41;;;;;;;4.00;1.00;;;24.40;49.20;;;;;;6166744;23;20029;-86
2022/06/02 14:06:05;;;;;;;4.18;1.08;;;25.00;49.30;;;;;;6164705;23;20345;-91
2022/06/02 14:09:23;;;;;;;3.20;1.27;;;24.90;49.10;;;;;;6165706;23;20029;-91
2022/06/02 14:12:33;;;;;;;4.30;1.20;;;24.20;49.30;;;;;;6187968;23;20029;-90
2022/06/02 14:15:26;;;;;;;4.63;1.10;;;23.50;49.80;;;;;;6184018;23;20039;-88
2022/06/02 14:18:39;;;;;;;3.10;1.00;;;22.90;51.80;;;;;;6186928;23;20025;-88
2022/06/02 14:21:57;;;;;;;6.95;1.75;;;22.60;53.10;;;;;;6166362;23;20021;-90
2022/06/02 14:25:10;;;;;;;1.88;1.30;;;22.40;53.50;;;;;;6165380;23;20100;-88
2022/06/02 14:28:15;;;;;;;3.97;1.23;;;22.20;54.60;;;;;;6185609;23;20032;-89
2022/06/02 14:31:06;;;;;;;3.38;1.35;;;22.10;54.30;;;;;;6185131;23;20021;-94
2022/06/02 14:34:38;;;;;;;5.20;1.38;;;22.10;54.40;;;;;;6186659;23;20028;-92
2022/06/02 14:38:52;;;;;;;3.08;1.40;;;22.00;54.20;;;;;;6169590;23;20168;-90
2022/06/02 14:43:16;;;;;;;;;;;;;;;;;;;;;
2022/06/02 14:46:25;;;;;;;2.85;1.30;;;21.70;51.70;;;;;;6066940;23;20027;-89
2022/06/02 14:50:14;;;;;;;2.95;1.40;;;21.40;54.20;;;;;;6039933;23;20042;-90
2022/06/02 14:54:00;;;;;;;4.53;1.10;;;21.40;56.30;;;;;;6037209;23;20019;-90
2022/06/02 15:19:46;;;;;;;5.90;1.27;;;21.40;57.50;;;;;;6206655;22;20037;-84
2022/06/02 15:23:45;;;;;;;;;;;;;;;;;;;;;
2022/06/02 15:31:59;;;;;;;2.15;1.35;;;21.80;58.20;;;;;;6205783;23;20001;-93
2022/06/02 15:35:24;;;;;;;6.05;1.27;;;21.80;58.40;;;;;;6167797;23;20101;-89
2022/06/02 15:38:49;;;;;;;4.85;1.60;;;21.80;59.20;;;;;;6187678;23;20079;-89
2022/06/02 15:42:24;;;;;;;4.35;1.15;;;22.00;59.40;;;;;;6167097;23;20101;-90
2022/06/02 15:49:42;;;;;;;1.55;1.02;;;22.80;57.70;;;;;;6110797;23;20030;-90
2022/06/02 15:53:37;;;;;;;;;;;;;;;;;;;;;
2022/06/02 15:57:21;;;;;;;3.90;1.23;;;23.80;53.40;;;;;;6036451;23;20015;-85
2022/06/02 16:00:15;;;;;;;;;;;23.60;54.00;;;;;;5996811;23;20167;-92
2022/06/02 16:03:25;;;;;;;2.13;1.10;;;23.50;54.70;;;;;;5979665;24;19922;-91
2022/06/02 16:06:18;;;;;;;2.55;1.45;;;23.20;53.90;;;;;;5994437;24;20028;-91
2022/06/02 16:13:24;;;;;;;6.53;2.20;;;23.50;53.30;;;;;;5988940;24;20067;-92
2022/06/02 16:16:41;;;;;;;5.28;1.60;;;23.20;54.80;;;;;;5987429;24;20087;-89
2022/06/02 16:20:00;;;;;;;3.25;1.10;;;23.10;53.90;;;;;;6013851;23;20055;-89
2022/06/02 16:23:34;;;;;;;4.57;1.60;;;22.70;55.30;;;;;;6046929;23;20027;-92
2022/06/02 16:26:57;;;;;;;2.38;1.25;;;22.80;56.00;;;;;;6117620;23;20070;-90
2022/06/02 16:30:56;;;;;;;7.63;1.25;;;23.00;55.40;;;;;;6132998;23;20421;-89
2022/06/02 16:34:34;;;;;;;6.47;2.03;;;23.10;57.00;;;;;;6172049;23;20029;-90
2022/06/02 16:37:28;;;;;;;3.45;1.55;;;22.60;57.00;;;;;;6136812;23;20440;-91
2022/06/02 16:40:50;;;;;;;6.05;1.45;;;22.10;57.00;;;;;;6189761;23;20412;-91
2022/06/02 16:43:55;;;;;;;1.60;1.10;;;21.80;58.30;;;;;;6173293;23;20021;-92
2022/06/02 16:47:08;;;;;;;1.80;1.40;;;21.70;58.20;;;;;;6172347;23;20021;-89
2022/06/02 16:50:25;;;;;;;2.78;1.30;;;21.80;59.00;;;;;;6173717;23;20095;-91
2022/06/02 16:56:51;;;;;;;4.53;1.23;;;21.90;58.30;;;;;;6190180;23;20024;-91
2022/06/02 17:00:05;;;;;;;1.67;1.20;;;22.00;58.90;;;;;;6194719;23;20025;-91
2022/06/02 17:03:23;;;;;;;17.50;4.93;;;22.00;59.40;;;;;;6175751;23;20020;-91
2022/06/02 17:11:21;;;;;;;4.30;1.48;;;21.80;60.30;;;;;;6049919;23;20023;-88
2022/06/02 17:20:00;;;;;;;2.30;1.67;;;21.40;61.20;;;;;;5987581;24;20043;-89
2022/06/02 17:23:13;;;;;;;1.73;1.60;;;21.00;62.20;;;;;;5986872;24;20139;-92
2022/06/02 17:26:39;;;;;;;3.05;1.83;;;20.90;63.70;;;;;;6040952;23;20110;-91
2022/06/02 17:30:28;;;;;;;2.75;1.30;;;20.80;63.60;;;;;;6012897;23;20023;-91
2022/06/02 17:34:20;;;;;;;;;;;;;;;;;;;;;
2022/06/02 17:38:20;;;;;;;;;;;;;;;;;;;;;
2022/06/02 17:45:41;;;;;;;6.93;1.83;;;20.80;65.90;;;;;;6039446;23;20246;-92
2022/06/02 17:49:46;;;;;;;;;;;;;;;;;;;;;
2022/06/02 17:52:53;;;;;;;2.05;1.42;;;20.70;65.70;;;;;;6075844;23;20058;-85
2022/06/02 17:55:52;;;;;;;3.60;1.55;;;20.60;66.40;;;;;;6053943;23;20166;-90
2022/06/02 17:58:46;;;;;;;1.80;1.38;;;20.50;66.20;;;;;;6073064;23;20104;-91
2022/06/02 18:02:02;;;;;;;10.65;1.65;;;20.50;66.90;;;;;;6076902;23;20038;-92
2022/06/02 18:05:12;;;;;;;4.45;1.73;;;20.50;67.70;;;;;;6105384;23;20029;-88
2022/06/02 18:08:02;;;;;;;2.58;1.45;;;20.50;66.90;;;;;;6137468;23;20037;-85
2022/06/02 18:11:11;;;;;;;3.55;1.60;;;20.40;65.80;;;;;;6137380;23;20030;-88
2022/06/02 18:14:24;;;;;;;2.20;1.20;;;20.40;66.20;;;;;;6158520;23;20105;-86
2022/06/02 18:17:33;;;;;;;1.33;1.23;;;20.40;66.70;;;;;;6156339;23;20033;-87
2022/06/02 18:20:53;;;;;;;3.15;1.33;;;20.30;66.30;;;;;;6175432;23;20104;-88
2022/06/02 18:24:05;;;;;;;3.90;1.67;;;20.20;67.40;;;;;;6055464;23;20042;-89
2022/06/02 18:27:27;;;;;;;4.82;1.50;;;20.10;67.60;;;;;;6187144;23;20057;-90
2022/06/02 18:31:00;;;;;;;4.55;1.60;;;19.90;68.10;;;;;;6186840;23;20025;-89
2022/06/02 18:33:51;;;;;;;2.03;1.52;;;19.70;68.50;;;;;;6186142;23;20025;-86
2022/06/02 18:37:15;;;;;;;2.17;1.25;;;19.60;69.20;;;;;;6184667;23;20029;-86
2022/06/02 18:40:40;;;;;;;10.10;1.45;;;19.40;69.10;;;;;;6192581;23;20032;-88
2022/06/02 18:43:55;;;;;;;2.45;1.48;;;19.30;71.00;;;;;;6070232;23;20033;-91
2022/06/02 18:47:04;;;;;;;3.13;1.48;;;19.20;71.10;;;;;;6149177;23;20110;-90
2022/06/02 18:50:49;;;;;;;4.28;1.58;;;19.00;72.30;;;;;;6189575;23;20096;-88
2022/06/02 18:53:36;;;;;;;3.58;1.17;;;18.90;73.20;;;;;;6170612;23;20048;-90
2022/06/02 18:56:30;;;;;;;3.35;1.70;;;18.80;74.00;;;;;;6191364;23;20091;-89
2022/06/02 18:59:33;;;;;;;;;;;18.80;75.40;;;;;;6168159;23;20381;-89
2022/06/02 19:02:57;;;;;;;4.75;1.52;;;18.60;75.70;;;;;;6167397;23;19916;-88
2022/06/02 19:05:48;;;;;;;2.20;1.42;;;18.60;76.00;;;;;;6161404;23;20105;-89
2022/06/02 19:16:08;;;;;;;5.47;1.83;;;18.10;80.50;;;;;;6190231;23;20055;-90
2022/06/02 19:19:04;;;;;;;3.78;2.00;;;18.00;81.30;;;;;;6188878;23;20105;-91
2022/06/02 19:22:11;;;;;;;5.65;1.90;;;17.90;82.90;;;;;;6192458;23;20025;-91
2022/06/02 19:25:21;;;;;;;3.80;1.83;;;17.70;84.20;;;;;;6195004;23;20367;-87
2022/06/02 19:28:17;;;;;;;4.75;1.67;;;17.50;86.70;;;;;;6174426;23;20039;-87
2022/06/02 19:31:25;;;;;;;5.38;1.85;;;17.50;87.80;;;;;;6193630;23;20037;-90
2022/06/02 19:34:35;;;;;;;2.83;1.67;;;17.30;87.50;;;;;;6196012;23;20025;-93
2022/06/02 19:37:49;;;;;;;3.55;1.50;;;17.20;89.00;;;;;;6197224;23;20021;-93
2022/06/02 19:40:43;;;;;;;3.10;2.05;;;17.00;91.00;;;;;;6174866;23;20029;-90
2022/06/02 19:43:45;;;;;;;4.38;1.88;;;16.80;92.40;;;;;;6178318;23;20060;-91
2022/06/02 19:47:06;;;;;;;5.50;2.03;;;16.70;92.30;;;;;;6180502;23;20036;-92
2022/06/02 19:50:25;;;;;;;3.92;1.90;;;16.60;94.40;;;;;;6192614;23;20105;-91
2022/06/02 19:53:39;;;;;;;4.18;1.88;;;16.50;99.60;;;;;;6137919;23;20056;-91
2022/06/02 19:56:33;;;;;;;5.80;2.08;;;16.40;99.20;;;;;;6190806;23;20025;-92
2022/06/02 19:59:45;;;;;;;;;;;;;;;;;;;;;
2022/06/02 20:03:29;;;;;;;;;;;;;;;;;;;;;
2022/06/02 20:07:11;;;;;;;5.10;2.33;;;16.40;99.90;;;;;;6190312;23;20128;-89
2022/06/02 20:11:02;;;;;;;;;;;;;;;;;;;;;
2022/06/02 20:14:53;;;;;;;4.40;2.17;;;16.40;99.90;;;;;;6081253;23;20027;-89
2022/06/02 20:18:49;;;;;;;2.97;2.10;;;16.30;99.90;;;;;;6075781;23;20075;-92
2022/06/02 20:22:08;;;;;;;5.10;2.22;;;16.20;99.90;;;;;;6052525;23;20113;-90
2022/06/02 20:26:38;;;;;;;;;;;;;;;;;;;;;
2022/06/02 20:47:22;;;;;;;;;;;;;;;;;;;;;
2022/06/02 20:50:56;;;;;;;4.05;3.40;;;15.50;99.90;;;;;;6056864;23;20016;-91
2022/06/02 20:54:23;;;;;;;;;;;15.40;99.90;;;;;;6057737;23;20023;-90
2022/06/02 20:57:49;;;;;;;8.90;5.45;;;15.20;99.90;;;;;;6106782;23;19961;-89
2022/06/02 21:01:01;;;;;;;;;;;;;;;;;;;;;
2022/06/02 21:04:58;;;;;;;;;;;;;;;;;;;;;
2022/06/02 21:09:08;;;;;;;;;;;;;;;;;;;;;
2022/06/02 21:17:23;;;;;;;;;;;;;;;;;;;;;